createdAt,value
2017-06-26T00:00:39.318Z,0
2017-06-26T00:01:49.676Z,0
2017-06-26T00:03:00.032Z,0
2017-06-26T00:04:10.395Z,0
2017-06-26T00:05:20.749Z,0
2017-06-26T00:06:30.830Z,0
2017-06-26T00:07:41.190Z,0
2017-06-26T00:08:51.574Z,0
2017-06-26T00:10:01.928Z,0
2017-06-26T00:11:11.976Z,0
2017-06-26T00:12:22.332Z,0
2017-06-26T00:13:32.384Z,0
2017-06-26T00:14:42.420Z,0
2017-06-26T00:15:52.450Z,0
2017-06-26T00:17:02.826Z,0
2017-06-26T00:18:12.894Z,0
2017-06-26T00:19:22.947Z,0
2017-06-26T00:20:33.291Z,0
2017-06-26T00:21:43.646Z,0
2017-06-26T00:22:53.993Z,0
2017-06-26T00:24:04.081Z,0
2017-06-26T00:25:14.107Z,0
2017-06-26T00:26:23.872Z,0
2017-06-26T00:27:34.214Z,0
2017-06-26T00:28:44.561Z,0
2017-06-26T00:29:54.648Z,0
2017-06-26T00:31:05.000Z,0
2017-06-26T00:32:14.721Z,0
2017-06-26T00:33:24.775Z,0
2017-06-26T00:34:35.121Z,0
2017-06-26T00:35:45.530Z,0
2017-06-26T00:36:55.882Z,0
2017-06-26T00:38:06.226Z,0
2017-06-26T00:39:16.270Z,0
2017-06-26T00:40:26.298Z,0
2017-06-26T00:41:36.381Z,0
2017-06-26T00:42:46.756Z,0
2017-06-26T00:43:57.096Z,0
2017-06-26T00:45:07.463Z,0
2017-06-26T00:46:17.496Z,0
2017-06-26T00:47:27.888Z,0
2017-06-26T00:48:37.942Z,0
2017-06-26T00:49:48.274Z,0
2017-06-26T00:50:58.613Z,0
2017-06-26T00:52:08.661Z,0
2017-06-26T00:53:18.425Z,0
2017-06-26T00:54:28.763Z,0
2017-06-26T00:55:39.105Z,0
2017-06-26T00:56:49.142Z,0
2017-06-26T00:57:59.156Z,0
2017-06-26T00:59:09.220Z,0
2017-06-26T01:00:19.584Z,0
2017-06-26T01:01:29.954Z,0
2017-06-26T01:02:39.985Z,0
2017-06-26T01:03:49.718Z,0
2017-06-26T01:05:00.070Z,0
2017-06-26T01:06:10.431Z,0
2017-06-26T01:07:20.790Z,0
2017-06-26T01:08:31.137Z,0
2017-06-26T01:09:41.464Z,0
2017-06-26T01:10:51.519Z,0
2017-06-26T01:12:01.871Z,0
2017-06-26T01:13:11.901Z,0
2017-06-26T01:14:21.934Z,0
2017-06-26T01:15:32.286Z,0
2017-06-26T01:16:42.685Z,0
2017-06-26T01:17:52.733Z,0
2017-06-26T01:19:03.076Z,0
2017-06-26T01:20:13.418Z,0
2017-06-26T01:21:23.444Z,0
2017-06-26T01:22:33.840Z,0
2017-06-26T01:23:44.177Z,0
2017-06-26T01:24:54.519Z,0
2017-06-26T01:26:04.860Z,0
2017-06-26T01:27:15.221Z,0
2017-06-26T01:28:25.243Z,0
2017-06-26T01:29:35.582Z,0
2017-06-26T01:30:45.938Z,0
2017-06-26T01:31:55.971Z,0
2017-06-26T01:33:06.308Z,0
2017-06-26T01:34:16.714Z,0
2017-06-26T01:35:27.052Z,0
2017-06-26T01:36:37.404Z,0
2017-06-26T01:37:47.750Z,0
2017-06-26T01:38:57.812Z,0
2017-06-26T01:40:07.883Z,0
2017-06-26T01:41:18.231Z,0
2017-06-26T01:42:28.265Z,0
2017-06-26T01:43:38.296Z,0
2017-06-26T01:44:48.640Z,0
2017-06-26T01:45:58.669Z,0
2017-06-26T01:47:08.719Z,0
2017-06-26T01:48:19.055Z,0
2017-06-26T01:49:29.079Z,0
2017-06-26T01:50:39.417Z,0
2017-06-26T01:51:49.846Z,0
2017-06-26T01:52:59.873Z,0
2017-06-26T01:54:09.903Z,0
2017-06-26T01:55:19.941Z,0
2017-06-26T01:56:29.987Z,0
2017-06-26T01:57:40.380Z,0
2017-06-26T01:58:50.726Z,0
2017-06-26T02:00:01.099Z,0
2017-06-26T02:01:11.434Z,0
2017-06-26T02:02:21.776Z,0
2017-06-26T02:03:32.411Z,0
2017-06-26T02:04:42.746Z,0
2017-06-26T02:05:53.101Z,0
2017-06-26T02:07:03.447Z,0
2017-06-26T02:08:13.785Z,0
2017-06-26T02:09:24.180Z,0
2017-06-26T02:10:34.517Z,0
2017-06-26T02:11:44.879Z,0
2017-06-26T02:12:54.905Z,0
2017-06-26T02:14:05.255Z,0
2017-06-26T02:15:15.500Z,0
2017-06-26T02:16:25.530Z,0
2017-06-26T02:17:35.262Z,0
2017-06-26T02:18:45.644Z,0
2017-06-26T02:19:55.666Z,0
2017-06-26T02:21:05.749Z,0
2017-06-26T02:22:15.795Z,4
2017-06-26T02:23:26.139Z,4
2017-06-26T02:24:36.485Z,4
2017-06-26T02:25:46.562Z,0
2017-06-26T02:26:56.584Z,0
2017-06-26T02:28:06.620Z,4
2017-06-26T02:29:16.653Z,4
2017-06-26T02:30:26.376Z,4
2017-06-26T02:31:36.730Z,4
2017-06-26T02:32:47.135Z,4
2017-06-26T02:33:56.864Z,4
2017-06-26T02:35:06.905Z,8
2017-06-26T02:36:16.938Z,8
2017-06-26T02:37:26.973Z,12
2017-06-26T02:38:37.371Z,12
2017-06-26T02:39:47.395Z,12
2017-06-26T02:40:57.744Z,16
2017-06-26T02:42:07.762Z,16
2017-06-26T02:43:17.789Z,16
2017-06-26T02:44:27.842Z,16
2017-06-26T02:45:38.188Z,24
2017-06-26T02:46:48.232Z,24
2017-06-26T02:47:58.257Z,24
2017-06-26T02:49:08.298Z,28
2017-06-26T02:50:18.948Z,32
2017-06-26T02:51:29.288Z,32
2017-06-26T02:52:39.309Z,36
2017-06-26T02:53:49.654Z,40
2017-06-26T02:55:00.000Z,44
2017-06-26T02:56:10.397Z,44
2017-06-26T02:57:20.746Z,52
2017-06-26T02:58:31.087Z,52
2017-06-26T02:59:41.483Z,60
2017-06-26T03:00:51.838Z,64
2017-06-26T03:33:18.129Z,476
2017-06-26T03:34:28.167Z,496
2017-06-26T03:35:38.498Z,516
2017-06-26T03:36:48.520Z,540
2017-06-26T03:37:58.546Z,564
2017-06-26T03:39:08.930Z,592
2017-06-26T03:40:19.264Z,620
2017-06-26T03:41:28.974Z,644
2017-06-26T03:42:39.326Z,672
2017-06-26T03:43:49.369Z,692
2017-06-26T03:44:59.760Z,712
2017-06-26T03:46:09.785Z,728
2017-06-26T03:47:19.802Z,744
2017-06-26T03:48:30.141Z,760
2017-06-26T03:49:40.488Z,780
2017-06-26T03:50:50.881Z,800
2017-06-26T03:52:00.907Z,812
2017-06-26T03:53:10.627Z,828
2017-06-26T03:54:20.971Z,840
2017-06-26T03:55:31.327Z,856
2017-06-26T03:56:41.688Z,864
2017-06-26T03:57:52.026Z,880
2017-06-26T03:59:02.058Z,892
2017-06-26T04:00:12.406Z,904
2017-06-26T04:01:22.431Z,912
2017-06-26T04:02:32.828Z,916
2017-06-26T04:03:42.863Z,928
2017-06-26T04:04:52.900Z,936
2017-06-26T04:06:02.932Z,948
2017-06-26T04:07:13.295Z,956
2017-06-26T04:08:23.684Z,968
2017-06-26T04:09:34.056Z,976
2017-06-26T04:10:44.097Z,992
2017-06-26T04:11:53.807Z,1008
2017-06-26T04:13:04.154Z,1024
2017-06-26T04:14:14.548Z,1040
2017-06-26T04:15:24.910Z,1064
2017-06-26T04:16:35.239Z,1092
2017-06-26T04:17:45.281Z,1120
2017-06-26T04:18:55.625Z,1156
2017-06-26T04:20:05.977Z,1188
2017-06-26T04:21:16.331Z,1228
2017-06-26T04:22:26.051Z,1268
2017-06-26T04:23:36.076Z,1328
2017-06-26T04:24:46.102Z,1396
2017-06-26T04:25:56.495Z,1484
2017-06-26T04:27:06.830Z,1592
2017-06-26T04:28:17.167Z,1740
2017-06-26T04:29:27.516Z,2012
2017-06-26T04:30:37.856Z,2624
2017-06-26T04:31:47.892Z,7368
2017-06-26T04:32:58.233Z,12064
2017-06-26T04:34:08.586Z,12316
2017-06-26T04:35:18.614Z,12832
2017-06-26T04:36:28.682Z,15840
2017-06-26T04:37:39.094Z,15808
2017-06-26T04:38:49.137Z,16864
2017-06-26T04:39:59.159Z,12648
2017-06-26T04:41:09.509Z,17120
2017-06-26T04:42:19.839Z,17216
2017-06-26T04:43:30.234Z,17344
2017-06-26T04:44:40.263Z,17408
2017-06-26T04:45:50.310Z,17280
2017-06-26T04:47:00.674Z,16768
2017-06-26T04:48:11.017Z,16896
2017-06-26T04:49:21.369Z,16928
2017-06-26T04:50:31.712Z,16832
2017-06-26T04:51:42.054Z,16512
2017-06-26T04:52:52.396Z,16768
2017-06-26T04:54:02.430Z,16960
2017-06-26T04:55:12.830Z,16832
2017-06-26T04:56:23.193Z,15712
2017-06-26T04:57:32.922Z,15104
2017-06-26T04:58:42.972Z,14912
2017-06-26T04:59:53.313Z,14752
2017-06-26T05:01:03.660Z,14752
2017-06-26T05:02:14.018Z,15008
2017-06-26T05:03:24.056Z,14944
2017-06-26T05:04:34.413Z,14752
2017-06-26T05:05:44.758Z,14400
2017-06-26T05:06:55.178Z,14528
2017-06-26T05:08:05.528Z,14848
2017-06-26T05:09:15.897Z,14720
2017-06-26T05:10:26.259Z,14528
2017-06-26T05:11:36.601Z,14228
2017-06-26T05:12:46.376Z,15296
2017-06-26T05:13:56.735Z,15552
2017-06-26T05:15:07.084Z,16224
2017-06-26T05:16:17.435Z,10908
2017-06-26T05:17:27.473Z,6736
2017-06-26T05:18:37.900Z,8068
2017-06-26T05:19:47.950Z,16448
2017-06-26T05:20:58.310Z,7256
2017-06-26T05:22:08.366Z,7012
2017-06-26T05:23:18.932Z,10916
2017-06-26T05:24:28.982Z,6936
2017-06-26T05:25:39.345Z,5744
2017-06-26T05:26:49.390Z,5116
2017-06-26T05:27:59.743Z,5500
2017-06-26T05:29:10.080Z,6412
2017-06-26T05:30:20.477Z,13624
2017-06-26T05:31:30.225Z,6492
2017-06-26T05:32:40.575Z,5444
2017-06-26T05:33:50.912Z,15776
2017-06-26T05:35:00.979Z,16608
2017-06-26T05:36:11.365Z,16576
2017-06-26T05:37:21.390Z,16832
2017-06-26T05:38:31.434Z,17184
2017-06-26T05:39:41.791Z,17696
2017-06-26T05:40:52.132Z,18208
2017-06-26T05:42:02.537Z,18688
2017-06-26T05:43:12.889Z,19008
2017-06-26T05:44:23.249Z,19200
2017-06-26T05:45:33.295Z,19200
2017-06-26T05:46:43.651Z,18112
2017-06-26T05:47:53.749Z,19328
2017-06-26T05:49:04.094Z,19872
2017-06-26T05:50:14.177Z,8168
2017-06-26T05:51:24.517Z,9072
2017-06-26T05:52:34.546Z,9076
2017-06-26T05:53:44.896Z,7936
2017-06-26T05:54:54.939Z,8012
2017-06-26T05:56:04.979Z,8104
2017-06-26T05:57:15.339Z,8260
2017-06-26T05:58:25.682Z,7816
2017-06-26T05:59:35.765Z,6956
2017-06-26T06:00:46.130Z,6488
2017-06-26T06:01:56.159Z,6612
2017-06-26T06:03:06.185Z,6160
2017-06-26T06:04:16.218Z,6348
2017-06-26T06:05:26.559Z,6344
2017-06-26T06:06:36.600Z,6448
2017-06-26T06:07:46.332Z,6760
2017-06-26T06:08:56.679Z,6140
2017-06-26T06:10:07.019Z,6044
2017-06-26T06:11:16.493Z,6200
2017-06-26T06:12:26.514Z,6116
2017-06-26T06:13:36.858Z,6364
2017-06-26T06:14:46.888Z,6512
2017-06-26T06:15:57.237Z,6492
2017-06-26T06:17:07.642Z,6276
2017-06-26T06:18:17.995Z,6320
2017-06-26T06:19:28.354Z,6524
2017-06-26T06:20:38.735Z,6732
2017-06-26T06:21:48.778Z,6976
2017-06-26T06:22:58.892Z,7224
2017-06-26T06:24:09.252Z,7536
2017-06-26T06:25:19.625Z,7656
2017-06-26T06:26:29.986Z,8004
2017-06-26T06:27:40.336Z,7796
2017-06-26T06:28:50.407Z,7968
2017-06-26T06:30:00.447Z,7668
2017-06-26T06:31:10.794Z,7324
2017-06-26T06:32:21.146Z,7084
2017-06-26T06:33:31.498Z,6832
2017-06-26T06:34:41.607Z,6428
2017-06-26T06:35:51.966Z,6128
2017-06-26T06:37:02.315Z,5632
2017-06-26T06:38:12.359Z,6568
2017-06-26T06:39:22.409Z,6352
2017-06-26T06:40:32.812Z,8588
2017-06-26T06:41:43.202Z,11104
2017-06-26T06:42:53.550Z,11540
2017-06-26T06:44:03.906Z,10128
2017-06-26T06:45:13.946Z,7564
2017-06-26T06:46:23.712Z,6960
2017-06-26T06:47:34.079Z,11888
2017-06-26T06:48:44.454Z,11520
2017-06-26T06:49:55.058Z,10688
2017-06-26T06:51:05.105Z,11836
2017-06-26T06:52:15.193Z,11812
2017-06-26T06:53:25.236Z,6368
2017-06-26T06:54:35.274Z,6596
2017-06-26T06:55:45.624Z,6616
2017-06-26T06:56:55.342Z,5372
2017-06-26T06:58:05.773Z,9252
2017-06-26T06:59:16.115Z,10872
2017-06-26T07:00:26.157Z,8172
2017-06-26T07:01:36.210Z,5992
2017-06-26T07:02:46.243Z,7068
2017-06-26T07:03:56.652Z,6364
2017-06-26T07:05:06.943Z,7148
2017-06-26T07:06:17.300Z,7072
2017-06-26T07:07:27.347Z,6924
2017-06-26T07:08:37.721Z,6144
2017-06-26T07:09:48.340Z,5840
2017-06-26T07:10:58.698Z,7344
2017-06-26T07:12:08.803Z,5260
2017-06-26T07:13:19.156Z,6100
2017-06-26T07:14:29.497Z,6652
2017-06-26T07:15:39.548Z,6464
2017-06-26T07:16:49.888Z,6040
2017-06-26T07:18:00.234Z,5284
2017-06-26T07:19:10.281Z,4812
2017-06-26T07:20:20.013Z,4756
2017-06-26T07:21:30.384Z,4656
2017-06-26T07:22:40.437Z,4700
2017-06-26T07:23:50.557Z,4712
2017-06-26T07:25:00.301Z,4716
2017-06-26T07:26:10.655Z,4728
2017-06-26T07:27:21.052Z,4748
2017-06-26T07:28:31.092Z,4768
2017-06-26T07:29:41.460Z,4784
2017-06-26T07:30:51.814Z,4740
2017-06-26T07:32:01.872Z,4768
2017-06-26T07:33:12.277Z,4812
2017-06-26T07:34:22.651Z,4908
2017-06-26T07:35:32.998Z,5000
2017-06-26T07:36:43.370Z,5128
2017-06-26T07:37:53.728Z,5296
2017-06-26T07:39:03.817Z,5468
2017-06-26T07:40:13.873Z,5676
2017-06-26T07:41:24.256Z,5920
2017-06-26T07:42:34.292Z,6160
2017-06-26T07:43:46.265Z,6596
2017-06-26T07:44:56.841Z,7272
2017-06-26T07:46:07.233Z,6632
2017-06-26T07:47:17.625Z,6848
2017-06-26T07:48:27.681Z,7116
2017-06-26T07:49:37.768Z,6472
2017-06-26T07:50:48.205Z,6164
2017-06-26T07:51:57.936Z,6404
2017-06-26T07:53:08.303Z,8032
2017-06-26T07:54:18.658Z,8048
2017-06-26T07:55:29.017Z,7824
2017-06-26T07:56:39.124Z,8852
2017-06-26T07:57:49.154Z,9196
2017-06-26T07:58:59.195Z,7488
2017-06-26T08:00:09.549Z,7388
2017-06-26T08:01:19.901Z,7540
2017-06-26T08:02:30.310Z,6540
2017-06-26T08:03:40.703Z,7436
2017-06-26T08:04:51.067Z,7556
2017-06-26T08:06:01.416Z,6228
2017-06-26T08:07:11.456Z,6516
2017-06-26T08:08:21.855Z,7336
2017-06-26T08:09:32.208Z,7244
2017-06-26T08:10:42.239Z,7332
2017-06-26T08:11:52.599Z,7292
2017-06-26T08:13:02.641Z,7100
2017-06-26T08:14:12.743Z,6988
2017-06-26T08:15:23.106Z,6968
2017-06-26T08:16:33.463Z,6952
2017-06-26T08:17:43.806Z,5964
2017-06-26T08:18:53.855Z,7060
2017-06-26T08:20:04.258Z,7024
2017-06-26T08:21:14.669Z,7080
2017-06-26T08:22:25.016Z,7452
2017-06-26T08:23:35.276Z,8064
2017-06-26T08:24:45.623Z,8832
2017-06-26T08:25:55.956Z,9880
2017-06-26T08:27:06.314Z,9508
2017-06-26T08:28:16.680Z,8840
2017-06-26T08:29:27.040Z,8768
2017-06-26T08:30:37.388Z,8772
2017-06-26T08:31:47.483Z,8796
2017-06-26T08:32:57.539Z,11348
2017-06-26T08:34:07.906Z,8420
2017-06-26T08:35:18.268Z,8240
2017-06-26T08:36:28.638Z,8668
2017-06-26T08:37:39.054Z,8160
2017-06-26T08:38:49.419Z,7932
2017-06-26T08:39:59.477Z,7780
2017-06-26T08:41:09.526Z,7112
2017-06-26T08:42:19.877Z,6760
2017-06-26T08:43:30.284Z,7160
2017-06-26T08:44:40.319Z,8764
2017-06-26T08:45:50.067Z,10840
2017-06-26T08:47:00.441Z,9896
2017-06-26T08:48:10.486Z,11056
2017-06-26T08:49:20.891Z,10152
2017-06-26T08:50:31.283Z,11244
2017-06-26T08:51:41.655Z,10980
2017-06-26T08:52:51.697Z,10288
2017-06-26T08:54:02.077Z,7368
2017-06-26T08:55:12.172Z,6028
2017-06-26T08:56:22.213Z,5852
2017-06-26T08:57:32.267Z,5644
2017-06-26T08:58:42.637Z,5480
2017-06-26T08:59:52.984Z,5112
2017-06-26T09:01:03.411Z,4684
2017-06-26T09:02:13.464Z,5212
2017-06-26T09:03:23.824Z,8684
2017-06-26T09:04:33.553Z,7144
2017-06-26T09:05:43.907Z,10212
2017-06-26T09:06:54.263Z,8684
2017-06-26T09:08:04.619Z,7860
2017-06-26T09:09:14.337Z,8228
2017-06-26T09:10:24.694Z,7096
2017-06-26T09:11:35.066Z,6700
2017-06-26T09:12:45.172Z,6316
2017-06-26T09:13:55.541Z,5876
2017-06-26T09:15:05.904Z,5248
2017-06-26T09:16:16.272Z,4552
2017-06-26T09:17:26.624Z,3916
2017-06-26T09:18:37.041Z,3496
2017-06-26T09:19:47.413Z,3068
2017-06-26T09:20:57.768Z,2772
2017-06-26T09:22:08.338Z,2708
2017-06-26T09:23:18.073Z,2812
2017-06-26T09:24:28.483Z,3084
2017-06-26T09:25:38.847Z,3432
2017-06-26T09:26:48.880Z,3856
2017-06-26T09:27:59.225Z,4348
2017-06-26T09:29:09.283Z,4824
2017-06-26T09:30:19.689Z,5344
2017-06-26T09:31:30.031Z,5768
2017-06-26T09:32:40.392Z,6016
2017-06-26T09:33:50.757Z,6252
2017-06-26T09:35:01.123Z,6396
2017-06-26T09:36:11.531Z,6508
2017-06-26T09:37:21.246Z,6592
2017-06-26T09:38:31.290Z,6720
2017-06-26T09:39:41.654Z,6928
2017-06-26T09:40:51.692Z,10344
2017-06-26T09:42:02.112Z,10104
2017-06-26T09:43:12.152Z,9152
2017-06-26T09:44:22.183Z,7556
2017-06-26T09:45:32.546Z,6744
2017-06-26T09:46:42.890Z,8692
2017-06-26T09:47:53.313Z,8596
2017-06-26T09:49:03.652Z,5424
2017-06-26T09:50:14.015Z,7772
2017-06-26T09:51:24.380Z,8056
2017-06-26T09:52:34.725Z,8020
2017-06-26T09:53:45.146Z,8112
2017-06-26T09:54:55.212Z,8296
2017-06-26T09:56:05.252Z,8496
2017-06-26T09:57:15.599Z,8664
2017-06-26T09:58:25.626Z,8912
2017-06-26T09:59:35.720Z,9344
2017-06-26T10:00:45.761Z,9580
2017-06-26T10:01:56.107Z,7956
2017-06-26T10:03:06.171Z,6408
2017-06-26T10:04:16.547Z,7452
2017-06-26T10:05:26.969Z,7332
2017-06-26T10:06:37.014Z,7964
2017-06-26T10:07:47.378Z,10412
2017-06-26T10:08:57.760Z,12176
2017-06-26T10:10:08.151Z,11016
2017-06-26T10:11:18.247Z,8912
2017-06-26T10:12:28.293Z,8432
2017-06-26T10:13:38.647Z,8616
2017-06-26T10:14:48.699Z,8840
2017-06-26T10:15:59.040Z,9356
2017-06-26T10:17:09.483Z,9080
2017-06-26T10:18:19.549Z,9064
2017-06-26T10:19:29.899Z,9076
2017-06-26T10:20:40.259Z,8916
2017-06-26T10:21:50.622Z,7680
2017-06-26T10:23:00.727Z,7036
2017-06-26T10:24:11.090Z,6412
2017-06-26T10:25:21.436Z,6032
2017-06-26T10:26:31.188Z,6068
2017-06-26T10:27:41.548Z,6288
2017-06-26T10:28:51.899Z,6352
2017-06-26T10:30:02.275Z,6436
2017-06-26T10:31:12.335Z,6452
2017-06-26T10:32:22.733Z,6884
2017-06-26T10:33:33.090Z,7268
2017-06-26T10:34:43.147Z,7696
2017-06-26T10:35:53.499Z,8148
2017-06-26T10:37:03.851Z,8524
2017-06-26T10:38:14.280Z,9280
2017-06-26T10:39:24.323Z,9040
2017-06-26T10:40:34.363Z,8720
2017-06-26T10:41:44.097Z,8548
2017-06-26T10:42:54.131Z,8328
2017-06-26T10:44:04.224Z,8328
2017-06-26T10:45:14.263Z,8224
2017-06-26T10:46:24.618Z,8080
2017-06-26T10:47:34.980Z,8128
2017-06-26T10:48:45.334Z,9924
2017-06-26T10:49:55.126Z,7996
2017-06-26T10:51:05.172Z,7268
2017-06-26T10:52:15.528Z,7892
2017-06-26T10:53:25.896Z,10344
2017-06-26T10:54:35.940Z,10124
2017-06-26T10:55:45.730Z,9536
2017-06-26T10:56:56.095Z,5904
2017-06-26T10:58:06.471Z,6428
2017-06-26T10:59:16.841Z,10008
2017-06-26T11:00:26.902Z,6976
2017-06-26T11:01:37.316Z,8168
2017-06-26T11:02:47.671Z,11580
2017-06-26T11:03:58.031Z,8696
2017-06-26T11:05:08.386Z,9908
2017-06-26T11:06:18.743Z,7816
2017-06-26T11:07:29.180Z,7824
2017-06-26T11:08:39.531Z,7884
2017-06-26T11:09:49.580Z,8080
2017-06-26T11:10:59.305Z,12368
2017-06-26T11:12:09.649Z,11648
2017-06-26T11:13:19.431Z,11092
2017-06-26T11:14:29.467Z,10296
2017-06-26T11:15:39.830Z,9512
2017-06-26T11:16:50.194Z,8972
2017-06-26T11:18:00.560Z,8752
2017-06-26T11:19:10.610Z,8840
2017-06-26T11:20:20.970Z,9152
2017-06-26T11:21:31.321Z,9540
2017-06-26T11:22:41.060Z,9936
2017-06-26T11:23:51.423Z,10316
2017-06-26T11:25:01.830Z,5996
2017-06-26T11:26:12.178Z,6240
2017-06-26T11:27:22.233Z,7044
2017-06-26T11:28:32.588Z,10580
2017-06-26T11:29:42.981Z,10384
2017-06-26T11:30:53.373Z,10272
2017-06-26T11:32:03.749Z,10136
2017-06-26T11:33:14.110Z,10092
2017-06-26T11:34:24.461Z,10128
2017-06-26T11:35:34.801Z,9212
2017-06-26T11:36:45.201Z,10360
2017-06-26T11:37:55.250Z,5812
2017-06-26T11:39:05.617Z,6024
2017-06-26T11:40:15.370Z,9912
2017-06-26T11:41:25.721Z,10952
2017-06-26T11:42:36.125Z,10500
2017-06-26T11:43:46.180Z,9180
2017-06-26T11:44:56.525Z,9012
2017-06-26T11:46:06.900Z,9680
2017-06-26T11:47:17.251Z,10164
2017-06-26T11:48:27.602Z,10192
2017-06-26T11:49:37.332Z,9240
2017-06-26T11:50:47.720Z,5608
2017-06-26T11:51:57.768Z,10480
2017-06-26T11:53:08.122Z,10620
2017-06-26T11:54:18.230Z,10508
2017-06-26T11:55:28.265Z,6096
2017-06-26T11:56:38.303Z,10300
2017-06-26T11:57:48.036Z,9856
2017-06-26T11:58:58.084Z,9624
2017-06-26T12:00:08.165Z,9288
2017-06-26T12:01:18.532Z,9052
2017-06-26T12:02:28.913Z,9008
2017-06-26T12:03:39.274Z,8840
2017-06-26T12:04:49.614Z,8724
2017-06-26T12:05:59.422Z,8772
2017-06-26T12:07:09.796Z,8764
2017-06-26T12:08:20.149Z,8908
2017-06-26T12:09:30.518Z,8932
2017-06-26T12:10:40.560Z,8900
2017-06-26T12:11:50.963Z,8968
2017-06-26T12:13:01.323Z,8996
2017-06-26T12:14:11.058Z,9088
2017-06-26T12:15:21.404Z,9020
2017-06-26T12:16:31.446Z,8844
2017-06-26T12:17:41.853Z,7584
2017-06-26T12:18:51.893Z,8904
2017-06-26T12:20:02.272Z,9028
2017-06-26T12:21:12.641Z,8936
2017-06-26T12:22:22.050Z,8688
2017-06-26T12:23:32.144Z,8316
2017-06-26T12:24:42.554Z,8248
2017-06-26T12:25:52.932Z,8184
2017-06-26T12:27:02.966Z,8272
2017-06-26T12:28:13.329Z,8540
2017-06-26T12:29:23.731Z,8784
2017-06-26T12:30:34.100Z,8884
2017-06-26T12:31:44.448Z,9192
2017-06-26T12:32:54.839Z,9444
2017-06-26T12:34:04.909Z,8784
2017-06-26T12:35:15.281Z,4880
2017-06-26T12:36:25.645Z,9108
2017-06-26T12:37:35.998Z,8808
2017-06-26T12:38:46.348Z,8568
2017-06-26T12:39:56.693Z,8420
2017-06-26T12:41:07.041Z,8276
2017-06-26T12:42:17.426Z,8088
2017-06-26T12:43:27.796Z,7936
2017-06-26T12:44:38.148Z,7872
2017-06-26T12:45:48.186Z,7784
2017-06-26T12:46:58.560Z,7804
2017-06-26T12:48:08.583Z,7776
2017-06-26T12:49:18.694Z,7192
2017-06-26T12:50:29.057Z,7620
2017-06-26T12:51:39.094Z,4752
2017-06-26T12:52:49.456Z,4620
2017-06-26T12:53:59.801Z,5688
2017-06-26T12:55:10.211Z,8236
2017-06-26T12:56:19.958Z,5684
2017-06-26T12:57:30.299Z,9516
2017-06-26T12:58:40.368Z,9284
2017-06-26T12:59:50.415Z,9144
2017-06-26T13:01:00.827Z,9016
2017-06-26T13:02:11.180Z,8808
2017-06-26T13:03:21.559Z,4600
2017-06-26T13:04:31.907Z,8468
2017-06-26T13:05:41.950Z,8436
2017-06-26T13:06:51.744Z,8368
2017-06-26T13:08:02.092Z,8352
2017-06-26T13:09:12.457Z,8204
2017-06-26T13:10:22.496Z,8244
2017-06-26T13:11:32.834Z,8200
2017-06-26T13:12:43.190Z,8556
2017-06-26T13:13:52.928Z,4736
2017-06-26T13:15:03.268Z,4980
2017-06-26T13:16:13.328Z,5196
2017-06-26T13:17:23.707Z,5440
2017-06-26T13:18:33.818Z,5896
2017-06-26T13:19:44.173Z,6072
2017-06-26T13:20:54.542Z,10088
2017-06-26T13:22:04.590Z,10024
2017-06-26T13:23:14.957Z,10116
2017-06-26T13:24:25.367Z,10196
2017-06-26T13:25:35.744Z,10036
2017-06-26T13:26:46.104Z,9760
2017-06-26T13:27:56.449Z,7700
2017-06-26T13:29:06.813Z,8476
2017-06-26T13:30:16.902Z,5304
2017-06-26T13:31:27.253Z,8684
2017-06-26T13:32:37.289Z,8384
2017-06-26T13:33:47.012Z,8260
2017-06-26T13:34:57.361Z,8232
2017-06-26T13:36:07.784Z,7964
2017-06-26T13:37:17.816Z,7992
2017-06-26T13:38:27.854Z,4476
2017-06-26T13:39:38.225Z,8104
2017-06-26T13:40:48.572Z,6724
2017-06-26T13:41:58.661Z,7860
2017-06-26T13:43:08.391Z,7804
2017-06-26T13:44:18.432Z,7700
2017-06-26T13:45:28.802Z,7568
2017-06-26T13:46:39.174Z,7416
2017-06-26T13:47:49.269Z,7340
2017-06-26T13:48:59.624Z,7256
2017-06-26T13:50:09.979Z,7160
2017-06-26T13:51:20.019Z,7112
2017-06-26T13:52:30.399Z,7112
2017-06-26T13:53:40.501Z,7088
2017-06-26T13:54:50.547Z,7200
2017-06-26T13:56:00.267Z,7256
2017-06-26T13:57:10.322Z,7244
2017-06-26T13:58:20.694Z,7116
2017-06-26T13:59:31.124Z,6984
2017-06-26T14:00:41.156Z,6848
2017-06-26T14:01:51.517Z,6824
2017-06-26T14:03:01.866Z,6840
2017-06-26T14:04:12.214Z,6760
2017-06-26T14:05:22.639Z,6556
2017-06-26T14:06:33.002Z,6636
2017-06-26T14:07:43.030Z,6668
2017-06-26T14:08:53.418Z,3404
2017-06-26T14:10:03.467Z,6356
2017-06-26T14:11:13.559Z,6584
2017-06-26T14:12:23.926Z,6660
2017-06-26T14:13:34.292Z,6660
2017-06-26T14:14:44.654Z,6624
2017-06-26T14:15:54.704Z,6600
2017-06-26T14:17:05.046Z,6600
2017-06-26T14:18:15.091Z,6640
2017-06-26T14:19:25.440Z,6652
2017-06-26T14:20:35.799Z,6688
2017-06-26T14:21:45.533Z,6684
2017-06-26T14:22:55.872Z,6564
2017-06-26T14:24:05.904Z,6504
2017-06-26T14:25:15.982Z,6520
2017-06-26T14:26:26.320Z,6556
2017-06-26T14:27:36.367Z,6560
2017-06-26T14:28:46.770Z,6512
2017-06-26T14:29:56.845Z,6356
2017-06-26T14:31:06.917Z,6364
2017-06-26T14:32:17.293Z,6328
2017-06-26T14:33:27.699Z,6348
2017-06-26T14:34:37.799Z,6244
2017-06-26T14:35:48.173Z,6144
2017-06-26T14:36:58.546Z,6124
2017-06-26T14:38:08.919Z,6068
2017-06-26T14:39:19.297Z,6040
2017-06-26T14:40:29.679Z,6032
2017-06-26T14:41:40.068Z,6004
2017-06-26T14:42:50.469Z,5920
2017-06-26T14:44:00.859Z,5860
2017-06-26T14:45:10.932Z,5852
2017-06-26T14:46:21.031Z,5796
2017-06-26T14:47:31.409Z,5752
2017-06-26T14:48:42.063Z,5772
2017-06-26T14:49:52.740Z,5772
2017-06-26T14:51:03.110Z,5760
2017-06-26T14:52:13.822Z,5764
2017-06-26T14:53:24.519Z,5780
2017-06-26T14:54:34.922Z,5792
2017-06-26T14:55:45.275Z,5780
2017-06-26T14:56:55.418Z,5720
2017-06-26T14:58:06.399Z,5688
2017-06-26T14:59:17.172Z,5692
2017-06-26T15:00:27.811Z,5688
2017-06-26T15:01:38.467Z,5648
2017-06-26T15:02:49.418Z,5572
2017-06-26T15:03:59.869Z,5500
2017-06-26T15:05:10.348Z,5444
2017-06-26T15:06:21.190Z,5380
2017-06-26T15:07:31.762Z,5304
2017-06-26T15:08:42.174Z,5240
2017-06-26T15:09:52.553Z,5208
2017-06-26T15:11:02.919Z,5160
2017-06-26T15:12:13.023Z,5128
2017-06-26T15:13:22.788Z,5120
2017-06-26T15:14:32.848Z,5088
2017-06-26T15:15:43.252Z,5052
2017-06-26T15:16:53.315Z,5016
2017-06-26T15:18:03.413Z,4976
2017-06-26T15:19:13.816Z,4968
2017-06-26T15:20:24.162Z,4944
2017-06-26T15:21:34.243Z,4908
2017-06-26T15:22:44.283Z,4896
2017-06-26T15:23:53.705Z,4884
2017-06-26T15:25:04.067Z,4856
2017-06-26T15:26:14.123Z,4832
2017-06-26T15:27:24.538Z,4836
2017-06-26T15:28:35.126Z,4816
2017-06-26T15:29:45.495Z,4808
2017-06-26T15:30:55.854Z,4800
2017-06-26T15:32:06.231Z,4780
2017-06-26T15:33:16.655Z,4756
2017-06-26T15:34:27.030Z,4724
2017-06-26T15:35:37.080Z,4700
2017-06-26T15:36:47.427Z,4656
2017-06-26T15:37:57.779Z,4624
2017-06-26T15:39:08.165Z,4608
2017-06-26T15:40:18.235Z,4584
2017-06-26T15:41:28.620Z,4580
2017-06-26T15:42:38.995Z,4556
2017-06-26T15:43:49.355Z,4528
2017-06-26T15:44:59.713Z,4508
2017-06-26T15:46:10.070Z,4492
2017-06-26T15:47:19.824Z,4480
2017-06-26T15:48:30.184Z,4476
2017-06-26T15:49:40.252Z,4444
2017-06-26T15:50:50.339Z,4400
2017-06-26T15:52:00.692Z,4356
2017-06-26T15:53:10.439Z,4300
2017-06-26T15:54:20.839Z,4324
2017-06-26T15:55:31.192Z,4296
2017-06-26T15:56:41.319Z,4296
2017-06-26T15:57:51.380Z,4276
2017-06-26T15:59:01.819Z,4260
2017-06-26T16:00:11.898Z,4252
2017-06-26T16:01:22.276Z,4228
2017-06-26T16:02:32.359Z,4208
2017-06-26T16:03:42.735Z,4180
2017-06-26T16:04:53.111Z,4156
2017-06-26T16:06:03.179Z,4124
2017-06-26T16:07:13.561Z,4104
2017-06-26T16:08:23.968Z,4072
2017-06-26T16:09:34.029Z,4032
2017-06-26T16:10:44.072Z,4008
2017-06-26T16:11:54.152Z,3956
2017-06-26T16:13:04.203Z,3920
2017-06-26T16:14:14.295Z,3880
2017-06-26T16:15:24.647Z,3856
2017-06-26T16:16:34.704Z,3848
2017-06-26T16:17:44.431Z,3824
2017-06-26T16:18:54.808Z,3800
2017-06-26T16:20:04.924Z,3780